AXB2980 VOTV-VOBL
Flight info
| Callsign | AXB2980 |
|---|---|
| Flight time | 0h 56m |
| Altitude | 33000 |
| Route | RAMPU CCB W43 UGABA UGABA7F |
| Aircraft | B38M/M-SDE1FGHILORVWXY/HB1 |
Departure
| Time | 2026-05-05 16:51 |
|---|---|
| Airport | Thiruvananthapuram International Airport (VOTV) |
Arrival
| Time | 2026-05-05 17:47 |
|---|---|
| Airport | Kempegowda International Airport Bengaluru (VOBL) |
| Time | Latitude | Longitude | Altitude | Speed | Heading |
|---|---|---|---|---|---|
| 2026-05-05 16:23 | 8.47864 | 76.91717 | 35 ft | 0 kts | 185° |
| 2026-05-05 16:40 | 8.47880 | 76.91718 | 35 ft | 2 kts | 183° |
| 2026-05-05 16:40 | 8.47897 | 76.91718 | 35 ft | 2 kts | 179° |
| 2026-05-05 16:41 | 8.47913 | 76.91717 | 35 ft | 2 kts | 173° |
| 2026-05-05 16:41 | 8.47929 | 76.91714 | 35 ft | 2 kts | 157° |
| 2026-05-05 16:41 | 8.47942 | 76.91704 | 35 ft | 2 kts | 115° |
| 2026-05-05 16:41 | 8.47946 | 76.91693 | 35 ft | 1 kts | 97° |
| 2026-05-05 16:42 | 8.47946 | 76.91692 | 35 ft | 0 kts | 96° |
| 2026-05-05 16:46 | 8.47944 | 76.91704 | 35 ft | 3 kts | 96° |
| 2026-05-05 16:46 | 8.47941 | 76.91736 | 35 ft | 6 kts | 96° |
| 2026-05-05 16:47 | 8.47926 | 76.91862 | 35 ft | 12 kts | 96° |
| 2026-05-05 16:47 | 8.47916 | 76.91954 | 35 ft | 15 kts | 96° |
| 2026-05-05 16:47 | 8.47913 | 76.91990 | 35 ft | 16 kts | 96° |
| 2026-05-05 16:48 | 8.47893 | 76.92193 | 37 ft | 19 kts | 95° |
| 2026-05-05 16:48 | 8.47859 | 76.92325 | 38 ft | 19 kts | 127° |
| 2026-05-05 16:48 | 8.47831 | 76.92360 | 38 ft | 19 kts | 129° |
| 2026-05-05 16:48 | 8.47654 | 76.92543 | 36 ft | 23 kts | 136° |
| 2026-05-05 16:49 | 8.47530 | 76.92654 | 36 ft | 25 kts | 139° |
| 2026-05-05 16:49 | 8.47404 | 76.92784 | 35 ft | 27 kts | 136° |
| 2026-05-05 16:49 | 8.47279 | 76.92928 | 35 ft | 28 kts | 111° |
| 2026-05-05 16:49 | 8.47190 | 76.93070 | 36 ft | 14 kts | 167° |
| 2026-05-05 16:50 | 8.47145 | 76.93024 | 36 ft | 6 kts | 281° |
| 2026-05-05 16:50 | 8.47164 | 76.93001 | 35 ft | 9 kts | 319° |
| 2026-05-05 16:50 | 8.47222 | 76.92958 | 36 ft | 14 kts | 320° |
| 2026-05-05 16:50 | 8.47374 | 76.92812 | 35 ft | 61 kts | 316° |
| 2026-05-05 16:51 | 8.47844 | 76.92354 | 38 ft | 127 kts | 316° |
| 2026-05-05 16:51 | 8.48617 | 76.91593 | 112 ft | 177 kts | 315° |
| 2026-05-05 16:51 | 8.49516 | 76.90707 | 836 ft | 184 kts | 316° |
| 2026-05-05 16:51 | 8.50474 | 76.89786 | 1600 ft | 193 kts | 319° |
| 2026-05-05 16:52 | 8.51612 | 76.89034 | 2283 ft | 202 kts | 334° |
| 2026-05-05 16:52 | 8.52989 | 76.88560 | 2765 ft | 217 kts | 341° |
| 2026-05-05 16:52 | 8.54492 | 76.88100 | 3225 ft | 233 kts | 341° |
| 2026-05-05 16:52 | 8.56146 | 76.87766 | 3627 ft | 251 kts | 356° |
| 2026-05-05 16:53 | 8.57889 | 76.87757 | 4366 ft | 250 kts | 358° |
| 2026-05-05 16:53 | 8.59650 | 76.87742 | 5076 ft | 254 kts | 358° |
| 2026-05-05 16:53 | 8.61424 | 76.87726 | 5905 ft | 256 kts | 359° |
| 2026-05-05 16:53 | 8.63224 | 76.87709 | 6632 ft | 264 kts | 359° |
| 2026-05-05 16:54 | 8.65118 | 76.87689 | 6936 ft | 278 kts | 359° |
| 2026-05-05 16:54 | 8.67070 | 76.87668 | 6962 ft | 282 kts | 359° |
| 2026-05-05 16:54 | 8.69038 | 76.87656 | 6990 ft | 283 kts | 2° |
| 2026-05-05 16:54 | 8.70931 | 76.88142 | 6988 ft | 281 kts | 28° |
| 2026-05-05 16:55 | 8.72635 | 76.89136 | 6998 ft | 283 kts | 29° |
| 2026-05-05 16:55 | 8.74354 | 76.90107 | 7003 ft | 284 kts | 29° |
| 2026-05-05 16:55 | 8.76074 | 76.91090 | 6998 ft | 283 kts | 30° |
| 2026-05-05 16:55 | 8.77783 | 76.92073 | 7000 ft | 283 kts | 30° |
| 2026-05-05 16:56 | 8.79494 | 76.93062 | 7005 ft | 283 kts | 30° |
| 2026-05-05 16:56 | 8.81208 | 76.94055 | 7004 ft | 283 kts | 30° |
| 2026-05-05 16:56 | 8.82917 | 76.95046 | 7035 ft | 286 kts | 30° |
| 2026-05-05 16:56 | 8.84619 | 76.96036 | 7940 ft | 279 kts | 30° |
| 2026-05-05 16:57 | 8.86298 | 76.97012 | 8647 ft | 286 kts | 30° |
| 2026-05-05 16:57 | 8.88050 | 76.98031 | 9360 ft | 290 kts | 30° |
| 2026-05-05 16:57 | 8.89797 | 76.99047 | 10165 ft | 292 kts | 30° |
| 2026-05-05 16:57 | 8.91605 | 77.00099 | 10712 ft | 305 kts | 30° |
| 2026-05-05 16:58 | 8.93488 | 77.01193 | 11165 ft | 319 kts | 30° |
| 2026-05-05 16:58 | 8.95439 | 77.02328 | 11851 ft | 324 kts | 30° |
| 2026-05-05 16:58 | 8.97395 | 77.03467 | 12667 ft | 327 kts | 30° |
| 2026-05-05 16:58 | 8.99391 | 77.04628 | 13433 ft | 331 kts | 30° |
| 2026-05-05 16:59 | 9.01366 | 77.05778 | 14146 ft | 335 kts | 30° |
| 2026-05-05 16:59 | 9.03429 | 77.06979 | 14878 ft | 338 kts | 30° |
| 2026-05-05 16:59 | 9.05494 | 77.08130 | 15561 ft | 342 kts | 23° |
| 2026-05-05 16:59 | 9.07803 | 77.08726 | 16274 ft | 344 kts | 5° |
| 2026-05-05 17:00 | 9.10214 | 77.08835 | 16911 ft | 350 kts | 4° |
| 2026-05-05 17:00 | 9.12575 | 77.09309 | 17578 ft | 352 kts | 14° |
| 2026-05-05 17:00 | 9.14982 | 77.09862 | 18199 ft | 357 kts | 12° |
| 2026-05-05 17:00 | 9.17428 | 77.10393 | 18745 ft | 360 kts | 11° |
| 2026-05-05 17:01 | 9.19901 | 77.10922 | 19284 ft | 364 kts | 11° |
| 2026-05-05 17:01 | 9.22393 | 77.11451 | 19823 ft | 368 kts | 11° |
| 2026-05-05 17:01 | 9.24908 | 77.11983 | 20346 ft | 371 kts | 11° |
| 2026-05-05 17:01 | 9.27449 | 77.12521 | 20860 ft | 375 kts | 11° |
| 2026-05-05 17:02 | 9.30035 | 77.13067 | 21353 ft | 379 kts | 12° |
| 2026-05-05 17:02 | 9.32602 | 77.13610 | 21835 ft | 383 kts | 12° |
| 2026-05-05 17:02 | 9.35229 | 77.14166 | 22325 ft | 387 kts | 12° |
| 2026-05-05 17:02 | 9.37892 | 77.14638 | 22797 ft | 390 kts | 2° |
| 2026-05-05 17:03 | 9.40602 | 77.14487 | 23324 ft | 392 kts | 354° |
| 2026-05-05 17:03 | 9.43342 | 77.14309 | 23684 ft | 397 kts | 356° |
| 2026-05-05 17:03 | 9.46098 | 77.14139 | 24126 ft | 398 kts | 356° |
| 2026-05-05 17:03 | 9.48880 | 77.13956 | 24535 ft | 401 kts | 356° |
| 2026-05-05 17:04 | 9.51678 | 77.13766 | 24927 ft | 404 kts | 356° |
| 2026-05-05 17:04 | 9.54491 | 77.13573 | 25340 ft | 406 kts | 356° |
| 2026-05-05 17:04 | 9.57324 | 77.13377 | 25735 ft | 409 kts | 356° |
| 2026-05-05 17:04 | 9.60171 | 77.13180 | 26126 ft | 411 kts | 356° |
| 2026-05-05 17:05 | 9.63034 | 77.12983 | 26530 ft | 414 kts | 356° |
| 2026-05-05 17:05 | 9.65913 | 77.12784 | 26922 ft | 416 kts | 356° |
| 2026-05-05 17:05 | 9.68810 | 77.12583 | 27306 ft | 418 kts | 356° |
| 2026-05-05 17:05 | 9.71718 | 77.12382 | 27681 ft | 421 kts | 356° |
| 2026-05-05 17:06 | 9.74635 | 77.12180 | 28056 ft | 423 kts | 356° |
| 2026-05-05 17:06 | 9.77599 | 77.11976 | 28420 ft | 425 kts | 356° |
| 2026-05-05 17:06 | 9.80547 | 77.11772 | 28772 ft | 428 kts | 356° |
| 2026-05-05 17:06 | 9.83544 | 77.11564 | 29113 ft | 430 kts | 356° |
| 2026-05-05 17:07 | 9.86498 | 77.11360 | 29463 ft | 433 kts | 356° |
| 2026-05-05 17:07 | 9.89513 | 77.11162 | 29811 ft | 435 kts | 357° |
| 2026-05-05 17:07 | 9.92539 | 77.11001 | 30122 ft | 437 kts | 357° |
| 2026-05-05 17:07 | 9.95592 | 77.10835 | 30403 ft | 439 kts | 356° |
| 2026-05-05 17:08 | 9.98647 | 77.10667 | 30698 ft | 441 kts | 356° |
| 2026-05-05 17:08 | 10.01727 | 77.10496 | 30968 ft | 443 kts | 356° |
| 2026-05-05 17:08 | 10.04810 | 77.10326 | 31247 ft | 445 kts | 356° |
| 2026-05-05 17:08 | 10.07910 | 77.10155 | 31514 ft | 447 kts | 356° |
| 2026-05-05 17:09 | 10.11025 | 77.09982 | 31776 ft | 449 kts | 356° |
| 2026-05-05 17:09 | 10.14161 | 77.09809 | 32037 ft | 452 kts | 356° |
| 2026-05-05 17:09 | 10.17307 | 77.09635 | 32293 ft | 453 kts | 356° |
| 2026-05-05 17:09 | 10.20464 | 77.09460 | 32632 ft | 453 kts | 356° |
| 2026-05-05 17:10 | 10.23608 | 77.09286 | 32936 ft | 454 kts | 357° |
| 2026-05-05 17:10 | 10.26767 | 77.09112 | 32959 ft | 453 kts | 356° |
| 2026-05-05 17:10 | 10.33046 | 77.08764 | 32959 ft | 452 kts | 356° |
| 2026-05-05 17:11 | 10.39290 | 77.08418 | 32965 ft | 452 kts | 356° |
| 2026-05-05 17:11 | 10.45566 | 77.08070 | 32958 ft | 451 kts | 356° |
| 2026-05-05 17:12 | 10.51838 | 77.07722 | 32954 ft | 452 kts | 356° |
| 2026-05-05 17:12 | 10.58120 | 77.07374 | 32947 ft | 452 kts | 356° |
| 2026-05-05 17:13 | 10.64337 | 77.07029 | 32945 ft | 452 kts | 356° |
| 2026-05-05 17:13 | 10.70619 | 77.06680 | 32949 ft | 452 kts | 356° |
| 2026-05-05 17:14 | 10.76900 | 77.06331 | 32953 ft | 452 kts | 356° |
| 2026-05-05 17:14 | 10.83180 | 77.05983 | 32959 ft | 452 kts | 356° |
| 2026-05-05 17:15 | 10.89459 | 77.05634 | 32963 ft | 452 kts | 356° |
| 2026-05-05 17:15 | 10.95741 | 77.05284 | 32965 ft | 452 kts | 356° |
| 2026-05-05 17:16 | 11.02029 | 77.04944 | 32963 ft | 452 kts | 358° |
| 2026-05-05 17:16 | 11.05132 | 77.05231 | 32951 ft | 446 kts | 14° |
| 2026-05-05 17:16 | 11.08116 | 77.05957 | 32948 ft | 446 kts | 12° |
| 2026-05-05 17:17 | 11.14195 | 77.07221 | 32963 ft | 446 kts | 13° |
| 2026-05-05 17:17 | 11.20286 | 77.08532 | 32968 ft | 446 kts | 13° |
| 2026-05-05 17:18 | 11.26370 | 77.09847 | 32972 ft | 446 kts | 13° |
| 2026-05-05 17:18 | 11.32448 | 77.11161 | 32976 ft | 446 kts | 13° |
| 2026-05-05 17:19 | 11.38522 | 77.12476 | 32983 ft | 446 kts | 13° |
| 2026-05-05 17:19 | 11.44637 | 77.13802 | 32987 ft | 447 kts | 13° |
| 2026-05-05 17:20 | 11.50720 | 77.15125 | 32993 ft | 447 kts | 13° |
| 2026-05-05 17:20 | 11.56808 | 77.16450 | 32995 ft | 447 kts | 12° |
| 2026-05-05 17:21 | 11.62886 | 77.17773 | 33007 ft | 448 kts | 12° |
| 2026-05-05 17:22 | 11.72036 | 77.19767 | 33005 ft | 448 kts | 12° |
| 2026-05-05 17:22 | 11.78143 | 77.21098 | 33007 ft | 449 kts | 12° |
| 2026-05-05 17:23 | 11.84258 | 77.22431 | 33004 ft | 449 kts | 12° |
| 2026-05-05 17:23 | 11.90372 | 77.23765 | 33013 ft | 449 kts | 12° |
| 2026-05-05 17:24 | 11.95710 | 77.24930 | 33010 ft | 449 kts | 12° |
| 2026-05-05 17:24 | 12.01730 | 77.26245 | 33045 ft | 434 kts | 12° |
| 2026-05-05 17:24 | 12.04623 | 77.26877 | 33021 ft | 419 kts | 12° |
| 2026-05-05 17:25 | 12.07450 | 77.27494 | 32808 ft | 410 kts | 12° |
| 2026-05-05 17:25 | 12.09332 | 77.27906 | 32513 ft | 409 kts | 12° |
| 2026-05-05 17:25 | 12.13036 | 77.28715 | 31824 ft | 412 kts | 12° |
| 2026-05-05 17:25 | 12.15813 | 77.29431 | 31308 ft | 412 kts | 21° |
| 2026-05-05 17:26 | 12.18438 | 77.30587 | 30837 ft | 410 kts | 22° |
| 2026-05-05 17:26 | 12.21075 | 77.31679 | 30424 ft | 407 kts | 22° |
| 2026-05-05 17:26 | 12.23711 | 77.32771 | 29956 ft | 406 kts | 22° |
| 2026-05-05 17:26 | 12.26323 | 77.33855 | 29420 ft | 404 kts | 22° |
| 2026-05-05 17:27 | 12.28914 | 77.34932 | 28947 ft | 402 kts | 22° |
| 2026-05-05 17:27 | 12.31464 | 77.35992 | 28506 ft | 399 kts | 22° |
| 2026-05-05 17:27 | 12.34022 | 77.37055 | 28058 ft | 396 kts | 21° |
| 2026-05-05 17:27 | 12.36567 | 77.38114 | 27617 ft | 394 kts | 21° |
| 2026-05-05 17:28 | 12.39098 | 77.39167 | 27165 ft | 391 kts | 21° |
| 2026-05-05 17:28 | 12.41622 | 77.40218 | 26724 ft | 389 kts | 21° |
| 2026-05-05 17:28 | 12.44119 | 77.41257 | 26288 ft | 387 kts | 21° |
| 2026-05-05 17:28 | 12.45788 | 77.41952 | 25996 ft | 386 kts | 21° |
| 2026-05-05 17:29 | 12.49110 | 77.43335 | 25416 ft | 384 kts | 21° |
| 2026-05-05 17:29 | 12.51592 | 77.44369 | 24980 ft | 383 kts | 21° |
| 2026-05-05 17:29 | 12.53225 | 77.45049 | 24692 ft | 382 kts | 21° |
| 2026-05-05 17:29 | 12.56483 | 77.46406 | 24124 ft | 381 kts | 21° |
| 2026-05-05 17:30 | 12.58146 | 77.47099 | 23832 ft | 381 kts | 21° |
| 2026-05-05 17:30 | 12.59916 | 77.47836 | 23435 ft | 382 kts | 21° |
| 2026-05-05 17:30 | 12.62239 | 77.48805 | 22954 ft | 382 kts | 21° |
| 2026-05-05 17:30 | 12.64687 | 77.49825 | 22527 ft | 378 kts | 21° |
| 2026-05-05 17:31 | 12.67119 | 77.50839 | 22100 ft | 376 kts | 21° |
| 2026-05-05 17:31 | 12.69530 | 77.51844 | 21681 ft | 373 kts | 21° |
| 2026-05-05 17:31 | 12.71928 | 77.52844 | 21260 ft | 370 kts | 21° |
| 2026-05-05 17:31 | 12.74311 | 77.53838 | 20841 ft | 368 kts | 21° |
| 2026-05-05 17:32 | 12.76644 | 77.54811 | 20428 ft | 366 kts | 21° |
| 2026-05-05 17:33 | 12.78491 | 77.55582 | 20100 ft | 365 kts | 21° |
| 2026-05-05 17:34 | 12.80836 | 77.56561 | 19678 ft | 363 kts | 21° |
| 2026-05-05 17:34 | 12.83140 | 77.57522 | 19274 ft | 362 kts | 22° |
| 2026-05-05 17:34 | 12.85462 | 77.58491 | 18859 ft | 360 kts | 22° |
| 2026-05-05 17:34 | 12.87817 | 77.59475 | 18437 ft | 359 kts | 22° |
| 2026-05-05 17:35 | 12.90090 | 77.60425 | 17942 ft | 359 kts | 22° |
| 2026-05-05 17:35 | 12.92404 | 77.61393 | 17477 ft | 357 kts | 22° |
| 2026-05-05 17:35 | 12.94693 | 77.62351 | 17069 ft | 353 kts | 22° |
| 2026-05-05 17:35 | 12.96952 | 77.63297 | 16670 ft | 350 kts | 22° |
| 2026-05-05 17:36 | 12.99203 | 77.64239 | 16262 ft | 347 kts | 22° |
| 2026-05-05 17:36 | 13.01418 | 77.65167 | 16068 ft | 337 kts | 22° |
| 2026-05-05 17:36 | 13.03564 | 77.66066 | 15858 ft | 329 kts | 22° |
| 2026-05-05 17:36 | 13.05652 | 77.66941 | 15666 ft | 320 kts | 22° |
| 2026-05-05 17:37 | 13.07681 | 77.67792 | 15485 ft | 310 kts | 22° |
| 2026-05-05 17:37 | 13.09521 | 77.68934 | 15007 ft | 312 kts | 45° |
| 2026-05-05 17:37 | 13.10598 | 77.70834 | 14649 ft | 311 kts | 75° |
| 2026-05-05 17:37 | 13.10708 | 77.73035 | 14306 ft | 311 kts | 93° |
| 2026-05-05 17:38 | 13.10608 | 77.75213 | 13937 ft | 309 kts | 88° |
| 2026-05-05 17:38 | 13.10594 | 77.77397 | 13512 ft | 309 kts | 88° |
| 2026-05-05 17:38 | 13.10579 | 77.79612 | 13081 ft | 308 kts | 88° |
| 2026-05-05 17:38 | 13.10564 | 77.81808 | 12669 ft | 307 kts | 88° |
| 2026-05-05 17:39 | 13.10549 | 77.83994 | 12283 ft | 305 kts | 88° |
| 2026-05-05 17:39 | 13.10533 | 77.86169 | 11899 ft | 304 kts | 88° |
| 2026-05-05 17:39 | 13.10521 | 77.88334 | 11468 ft | 305 kts | 88° |
| 2026-05-05 17:39 | 13.10507 | 77.90514 | 11074 ft | 304 kts | 88° |
| 2026-05-05 17:40 | 13.10493 | 77.92669 | 10702 ft | 302 kts | 88° |
| 2026-05-05 17:40 | 13.10480 | 77.94819 | 10347 ft | 299 kts | 88° |
| 2026-05-05 17:40 | 13.10466 | 77.96918 | 10181 ft | 290 kts | 89° |
| 2026-05-05 17:40 | 13.10525 | 77.98950 | 10041 ft | 278 kts | 77° |
| 2026-05-05 17:41 | 13.11246 | 78.00693 | 10045 ft | 258 kts | 51° |
| 2026-05-05 17:41 | 13.12590 | 78.01792 | 10036 ft | 241 kts | 22° |
| 2026-05-05 17:41 | 13.14163 | 78.02176 | 9898 ft | 235 kts | 9° |
| 2026-05-05 17:41 | 13.15804 | 78.02281 | 9497 ft | 239 kts | 352° |
| 2026-05-05 17:42 | 13.19791 | 77.99095 | 8340 ft | 251 kts | 308° |
| 2026-05-05 17:42 | 13.20472 | 77.97318 | 7844 ft | 261 kts | 278° |
| 2026-05-05 17:43 | 13.20517 | 77.95446 | 7401 ft | 265 kts | 271° |
| 2026-05-05 17:43 | 13.20508 | 77.93546 | 6983 ft | 267 kts | 272° |
| 2026-05-05 17:43 | 13.20521 | 77.91629 | 6605 ft | 268 kts | 272° |
| 2026-05-05 17:43 | 13.20537 | 77.89712 | 6227 ft | 268 kts | 271° |
| 2026-05-05 17:44 | 13.20555 | 77.87795 | 5828 ft | 269 kts | 271° |
| 2026-05-05 17:44 | 13.20570 | 77.85902 | 5478 ft | 259 kts | 271° |
| 2026-05-05 17:44 | 13.20585 | 77.84114 | 5154 ft | 242 kts | 271° |
| 2026-05-05 17:44 | 13.20599 | 77.82449 | 4862 ft | 224 kts | 270° |
| 2026-05-05 17:45 | 13.20611 | 77.80943 | 4602 ft | 199 kts | 270° |
| 2026-05-05 17:45 | 13.20623 | 77.79602 | 4357 ft | 177 kts | 270° |
| 2026-05-05 17:45 | 13.20633 | 77.78388 | 4140 ft | 167 kts | 270° |
| 2026-05-05 17:45 | 13.20643 | 77.77194 | 3924 ft | 167 kts | 269° |
| 2026-05-05 17:46 | 13.20654 | 77.76018 | 3711 ft | 163 kts | 269° |
| 2026-05-05 17:46 | 13.20663 | 77.74860 | 3490 ft | 160 kts | 269° |
| 2026-05-05 17:46 | 13.20667 | 77.73728 | 3249 ft | 158 kts | 269° |
| 2026-05-05 17:46 | 13.20685 | 77.72618 | 3052 ft | 155 kts | 271° |
| 2026-05-05 17:47 | 13.20693 | 77.71550 | 2970 ft | 133 kts | 270° |
| 2026-05-05 17:47 | 13.20697 | 77.70855 | 2971 ft | 66 kts | 270° |
| 2026-05-05 17:47 | 13.20697 | 77.70521 | 2971 ft | 29 kts | 263° |
| 2026-05-05 17:47 | 13.20627 | 77.70327 | 2972 ft | 23 kts | 242° |
| 2026-05-05 17:48 | 13.20566 | 77.70278 | 2974 ft | 11 kts | 162° |
| 2026-05-05 17:48 | 13.20530 | 77.70327 | 2973 ft | 7 kts | 82° |
| 2026-05-05 17:48 | 13.20529 | 77.70376 | 2972 ft | 8 kts | 93° |
| 2026-05-05 17:48 | 13.20523 | 77.70401 | 2972 ft | 0 kts | 144° |
| 2026-05-05 17:49 | 13.20522 | 77.70401 | 2972 ft | 0 kts | 152° |
| 2026-05-05 17:49 | 13.20514 | 77.70399 | 2972 ft | 5 kts | 191° |
| 2026-05-05 17:49 | 13.20453 | 77.70390 | 2973 ft | 11 kts | 185° |
| 2026-05-05 17:49 | 13.20366 | 77.70390 | 2971 ft | 14 kts | 176° |
| 2026-05-05 17:50 | 13.20352 | 77.70391 | 2971 ft | 0 kts | 179° |
| 2026-05-05 17:50 | 13.20348 | 77.70391 | 2971 ft | 2 kts | 179° |
| 2026-05-05 17:50 | 13.20311 | 77.70391 | 2971 ft | 5 kts | 179° |
| 2026-05-05 17:50 | 13.20270 | 77.70391 | 2971 ft | 7 kts | 179° |
| 2026-05-05 17:51 | 13.20235 | 77.70392 | 2971 ft | 8 kts | 179° |
| 2026-05-05 17:51 | 13.20197 | 77.70397 | 2971 ft | 0 kts | 131° |
| 2026-05-05 17:51 | 13.20202 | 77.70436 | 2971 ft | 11 kts | 58° |
| 2026-05-05 17:51 | 13.20233 | 77.70484 | 2971 ft | 13 kts | 53° |
| 2026-05-05 17:52 | 13.20258 | 77.70502 | 2971 ft | 13 kts | 25° |
| 2026-05-05 17:53 | 13.20353 | 77.70507 | 2971 ft | 0 kts | 0° |